sensor_id;sensor_type;location;lat;lon;timestamp;pressure;altitude;pressure_sealevel;temperature;humidity
68141;BME280;54941;52.220;104.306;2024-03-08T00:00:13;96403.03;;;-11.59;70.51
68141;BME280;54941;52.220;104.306;2024-03-08T00:02:42;96409.53;;;-11.64;70.70
68141;BME280;54941;52.220;104.306;2024-03-08T00:05:09;96409.41;;;-11.53;70.05
68141;BME280;54941;52.220;104.306;2024-03-08T00:07:35;96405.25;;;-11.37;69.70
68141;BME280;54941;52.220;104.306;2024-03-08T00:10:02;96419.88;;;-11.48;69.84
68141;BME280;54941;52.220;104.306;2024-03-08T00:12:31;96415.50;;;-11.09;68.95
68141;BME280;54941;52.220;104.306;2024-03-08T00:14:57;96414.53;;;-11.25;68.90
68141;BME280;54941;52.220;104.306;2024-03-08T00:17:23;96424.38;;;-11.31;69.00
68141;BME280;54941;52.220;104.306;2024-03-08T00:19:51;96415.00;;;-11.45;69.27
68141;BME280;54941;52.220;104.306;2024-03-08T00:22:17;96422.72;;;-11.30;69.32
68141;BME280;54941;52.220;104.306;2024-03-08T00:24:44;96426.94;;;-11.31;69.13
68141;BME280;54941;52.220;104.306;2024-03-08T00:27:10;96425.09;;;-11.33;69.35
68141;BME280;54941;52.220;104.306;2024-03-08T00:29:36;96427.88;;;-11.15;68.58
68141;BME280;54941;52.220;104.306;2024-03-08T00:32:03;96433.53;;;-11.06;68.32
68141;BME280;54941;52.220;104.306;2024-03-08T00:34:29;96428.78;;;-10.87;67.80
68141;BME280;54941;52.220;104.306;2024-03-08T00:36:57;96434.13;;;-10.82;67.51
68141;BME280;54941;52.220;104.306;2024-03-08T00:39:23;96431.03;;;-10.64;67.27
68141;BME280;54941;52.220;104.306;2024-03-08T00:41:50;96431.19;;;-10.61;66.93
68141;BME280;54941;52.220;104.306;2024-03-08T00:44:16;96437.19;;;-10.60;66.53
68141;BME280;54941;52.220;104.306;2024-03-08T00:46:42;96439.75;;;-10.60;66.82
68141;BME280;54941;52.220;104.306;2024-03-08T00:49:09;96440.00;;;-10.55;66.81
68141;BME280;54941;52.220;104.306;2024-03-08T00:51:35;96441.97;;;-10.22;66.10
68141;BME280;54941;52.220;104.306;2024-03-08T00:54:03;96442.84;;;-10.07;64.96
68141;BME280;54941;52.220;104.306;2024-03-08T00:56:29;96448.22;;;-10.02;65.09
68141;BME280;54941;52.220;104.306;2024-03-08T00:58:55;96444.59;;;-9.91;64.86
68141;BME280;54941;52.220;104.306;2024-03-08T01:01:22;96450.06;;;-10.00;64.98
68141;BME280;54941;52.220;104.306;2024-03-08T01:03:48;96454.75;;;-9.92;64.80
68141;BME280;54941;52.220;104.306;2024-03-08T01:06:15;96449.44;;;-9.81;64.27
68141;BME280;54941;52.220;104.306;2024-03-08T01:08:41;96452.25;;;-9.30;63.37
68141;BME280;54941;52.220;104.306;2024-03-08T01:11:08;96448.19;;;-8.31;60.61
68141;BME280;54941;52.220;104.306;2024-03-08T01:13:35;96439.31;;;-6.40;54.38
68141;BME280;54941;52.220;104.306;2024-03-08T01:16:01;96441.44;;;-5.70;51.96
68141;BME280;54941;52.220;104.306;2024-03-08T01:18:28;96440.25;;;-5.37;50.02
68141;BME280;54941;52.220;104.306;2024-03-08T01:20:55;96430.00;;;-4.70;48.08
68141;BME280;54941;52.220;104.306;2024-03-08T01:23:21;96433.03;;;-4.57;47.84
68141;BME280;54941;52.220;104.306;2024-03-08T01:25:47;96429.50;;;-4.37;46.60
68141;BME280;54941;52.220;104.306;2024-03-08T01:28:15;96447.63;;;-3.61;45.75
68141;BME280;54941;52.220;104.306;2024-03-08T01:30:41;96434.19;;;-3.25;44.33
68141;BME280;54941;52.220;104.306;2024-03-08T01:33:07;96441.91;;;-4.73;46.61
68141;BME280;54941;52.220;104.306;2024-03-08T01:35:34;96439.44;;;-3.49;45.46
68141;BME280;54941;52.220;104.306;2024-03-08T01:38:00;96439.22;;;-2.76;43.06
68141;BME280;54941;52.220;104.306;2024-03-08T01:40:26;96439.66;;;-3.43;43.90
68141;BME280;54941;52.220;104.306;2024-03-08T01:42:53;96442.53;;;-2.21;41.82
68141;BME280;54941;52.220;104.306;2024-03-08T01:45:20;96445.53;;;-2.38;41.66
68141;BME280;54941;52.220;104.306;2024-03-08T01:47:47;96450.81;;;-2.63;42.54
68141;BME280;54941;52.220;104.306;2024-03-08T01:50:13;96444.19;;;-1.93;41.04
68141;BME280;54941;52.220;104.306;2024-03-08T01:52:40;96449.44;;;-1.26;38.58
68141;BME280;54941;52.220;104.306;2024-03-08T01:55:06;96453.72;;;-2.52;40.94
68141;BME280;54941;52.220;104.306;2024-03-08T01:57:33;96449.31;;;-1.63;40.18
68141;BME280;54941;52.220;104.306;2024-03-08T02:00:00;96445.31;;;-2.15;41.38
68141;BME280;54941;52.220;104.306;2024-03-08T02:02:28;96441.66;;;0.79;36.31
68141;BME280;54941;52.220;104.306;2024-03-08T02:04:56;96448.94;;;-0.75;36.88
68141;BME280;54941;52.220;104.306;2024-03-08T02:07:22;96457.13;;;-1.29;39.48
68141;BME280;54941;52.220;104.306;2024-03-08T02:09:49;96456.56;;;-2.13;40.67
68141;BME280;54941;52.220;104.306;2024-03-08T02:12:15;96468.06;;;-1.73;41.48
68141;BME280;54941;52.220;104.306;2024-03-08T02:14:42;96455.69;;;-0.81;38.83
68141;BME280;54941;52.220;104.306;2024-03-08T02:17:08;96462.97;;;-1.37;38.36
68141;BME280;54941;52.220;104.306;2024-03-08T02:19:36;96460.56;;;-1.30;38.88
68141;BME280;54941;52.220;104.306;2024-03-08T02:22:04;96454.06;;;0.01;36.58
68141;BME280;54941;52.220;104.306;2024-03-08T02:24:32;96453.16;;;0.92;35.77
68141;BME280;54941;52.220;104.306;2024-03-08T02:26:58;96454.34;;;1.68;34.45
68141;BME280;54941;52.220;104.306;2024-03-08T02:29:25;96455.31;;;0.21;35.93
68141;BME280;54941;52.220;104.306;2024-03-08T02:31:51;96462.44;;;0.31;35.49
68141;BME280;54941;52.220;104.306;2024-03-08T02:34:18;96475.88;;;-1.39;38.78
68141;BME280;54941;52.220;104.306;2024-03-08T02:36:44;96468.66;;;-0.45;37.48
68141;BME280;54941;52.220;104.306;2024-03-08T02:39:12;96455.25;;;3.31;32.11
68141;BME280;54941;52.220;104.306;2024-03-08T02:41:38;96451.94;;;1.25;33.47
68141;BME280;54941;52.220;104.306;2024-03-08T02:44:04;96470.75;;;0.12;36.38
68141;BME280;54941;52.220;104.306;2024-03-08T02:46:30;96466.34;;;0.11;35.37
68141;BME280;54941;52.220;104.306;2024-03-08T02:48:57;96462.78;;;0.48;36.07
68141;BME280;54941;52.220;104.306;2024-03-08T02:51:23;96469.31;;;0.74;33.82
68141;BME280;54941;52.220;104.306;2024-03-08T02:53:49;96469.03;;;0.14;35.90
68141;BME280;54941;52.220;104.306;2024-03-08T02:56:17;96470.41;;;-0.04;37.38
68141;BME280;54941;52.220;104.306;2024-03-08T02:58:43;96481.47;;;-0.89;37.94
68141;BME280;54941;52.220;104.306;2024-03-08T03:01:09;96471.03;;;-0.15;37.54
68141;BME280;54941;52.220;104.306;2024-03-08T03:03:36;96467.16;;;-0.34;37.33
68141;BME280;54941;52.220;104.306;2024-03-08T03:06:02;96471.81;;;-0.19;36.79
68141;BME280;54941;52.220;104.306;2024-03-08T03:08:28;96460.13;;;2.11;33.80
68141;BME280;54941;52.220;104.306;2024-03-08T03:10:55;96468.78;;;0.45;36.02
68141;BME280;54941;52.220;104.306;2024-03-08T03:13:22;96467.56;;;-0.14;36.52
68141;BME280;54941;52.220;104.306;2024-03-08T03:15:49;96470.56;;;0.04;37.68
68141;BME280;54941;52.220;104.306;2024-03-08T03:18:15;96472.25;;;0.46;35.95
68141;BME280;54941;52.220;104.306;2024-03-08T03:20:41;96459.34;;;1.53;34.85
68141;BME280;54941;52.220;104.306;2024-03-08T03:23:08;96462.97;;;2.31;32.73
68141;BME280;54941;52.220;104.306;2024-03-08T03:25:34;96468.59;;;1.95;33.41
68141;BME280;54941;52.220;104.306;2024-03-08T03:28:01;96464.16;;;2.59;33.76
68141;BME280;54941;52.220;104.306;2024-03-08T03:30:29;96459.44;;;3.11;33.16
68141;BME280;54941;52.220;104.306;2024-03-08T03:32:55;96460.03;;;2.81;33.19
68141;BME280;54941;52.220;104.306;2024-03-08T03:35:22;96469.81;;;1.03;34.84
68141;BME280;54941;52.220;104.306;2024-03-08T03:37:49;96464.00;;;1.16;35.30
68141;BME280;54941;52.220;104.306;2024-03-08T03:40:15;96474.19;;;1.04;35.92
68141;BME280;54941;52.220;104.306;2024-03-08T03:42:42;96471.03;;;1.84;34.03
68141;BME280;54941;52.220;104.306;2024-03-08T03:45:08;96476.09;;;2.40;33.83
68141;BME280;54941;52.220;104.306;2024-03-08T03:47:36;96464.78;;;1.70;35.17
68141;BME280;54941;52.220;104.306;2024-03-08T03:50:03;96466.00;;;2.68;34.38
68141;BME280;54941;52.220;104.306;2024-03-08T03:52:31;96481.09;;;1.57;34.34
68141;BME280;54941;52.220;104.306;2024-03-08T03:54:57;96466.06;;;1.98;35.02
68141;BME280;54941;52.220;104.306;2024-03-08T03:57:24;96475.75;;;2.10;33.97
68141;BME280;54941;52.220;104.306;2024-03-08T03:59:50;96466.63;;;2.47;33.47
68141;BME280;54941;52.220;104.306;2024-03-08T04:02:17;96451.56;;;3.05;33.85
68141;BME280;54941;52.220;104.306;2024-03-08T04:04:44;96462.88;;;2.22;34.07
68141;BME280;54941;52.220;104.306;2024-03-08T04:07:11;96463.78;;;3.09;32.42
68141;BME280;54941;52.220;104.306;2024-03-08T04:09:37;96460.56;;;2.49;33.60
68141;BME280;54941;52.220;104.306;2024-03-08T04:12:04;96458.38;;;4.06;32.83
68141;BME280;54941;52.220;104.306;2024-03-08T04:14:30;96451.41;;;4.06;34.76
68141;BME280;54941;52.220;104.306;2024-03-08T04:16:56;96443.66;;;4.32;34.16
68141;BME280;54941;52.220;104.306;2024-03-08T04:19:23;96448.84;;;4.23;33.55
68141;BME280;54941;52.220;104.306;2024-03-08T04:21:50;96444.59;;;4.42;32.78
68141;BME280;54941;52.220;104.306;2024-03-08T04:24:17;96450.38;;;3.81;33.79
68141;BME280;54941;52.220;104.306;2024-03-08T04:26:43;96442.56;;;3.83;34.61
68141;BME280;54941;52.220;104.306;2024-03-08T04:29:09;96447.44;;;3.30;34.46
68141;BME280;54941;52.220;104.306;2024-03-08T04:31:36;96446.75;;;3.57;33.67
68141;BME280;54941;52.220;104.306;2024-03-08T04:34:02;96442.59;;;3.92;33.63
68141;BME280;54941;52.220;104.306;2024-03-08T04:36:28;96446.19;;;4.14;33.39
68141;BME280;54941;52.220;104.306;2024-03-08T04:38:56;96449.50;;;3.79;33.28
68141;BME280;54941;52.220;104.306;2024-03-08T04:41:22;96450.22;;;3.54;34.87
68141;BME280;54941;52.220;104.306;2024-03-08T04:43:48;96441.66;;;3.73;33.82
68141;BME280;54941;52.220;104.306;2024-03-08T04:46:15;96449.66;;;2.85;35.58
68141;BME280;54941;52.220;104.306;2024-03-08T04:48:41;96441.22;;;3.15;34.49
68141;BME280;54941;52.220;104.306;2024-03-08T04:51:08;96448.28;;;2.38;36.51
68141;BME280;54941;52.220;104.306;2024-03-08T04:53:34;96452.72;;;2.45;36.74
68141;BME280;54941;52.220;104.306;2024-03-08T04:56:02;96436.59;;;2.07;36.20
68141;BME280;54941;52.220;104.306;2024-03-08T04:58:28;96429.28;;;2.48;35.40
68141;BME280;54941;52.220;104.306;2024-03-08T05:00:54;96430.88;;;2.35;35.49
68141;BME280;54941;52.220;104.306;2024-03-08T05:03:21;96433.53;;;2.40;36.60
68141;BME280;54941;52.220;104.306;2024-03-08T05:05:47;96426.31;;;2.16;37.32
68141;BME280;54941;52.220;104.306;2024-03-08T05:08:13;96423.31;;;2.59;36.43
68141;BME280;54941;52.220;104.306;2024-03-08T05:10:39;96433.75;;;3.67;34.71
68141;BME280;54941;52.220;104.306;2024-03-08T05:13:07;96432.56;;;3.21;35.50
68141;BME280;54941;52.220;104.306;2024-03-08T05:15:33;96440.56;;;2.48;36.92
68141;BME280;54941;52.220;104.306;2024-03-08T05:18:00;96440.72;;;2.62;36.13
68141;BME280;54941;52.220;104.306;2024-03-08T05:20:26;96441.16;;;2.21;36.21
68141;BME280;54941;52.220;104.306;2024-03-08T05:22:52;96433.66;;;2.52;35.81
68141;BME280;54941;52.220;104.306;2024-03-08T05:25:18;96424.22;;;2.66;35.51
68141;BME280;54941;52.220;104.306;2024-03-08T05:27:45;96428.19;;;2.29;36.67
68141;BME280;54941;52.220;104.306;2024-03-08T05:30:13;96428.84;;;2.10;36.65
68141;BME280;54941;52.220;104.306;2024-03-08T05:32:39;96428.19;;;2.27;37.47
68141;BME280;54941;52.220;104.306;2024-03-08T05:35:06;96420.16;;;2.09;36.27
68141;BME280;54941;52.220;104.306;2024-03-08T05:37:32;96415.25;;;2.37;36.57
68141;BME280;54941;52.220;104.306;2024-03-08T05:39:58;96423.78;;;2.23;37.56
68141;BME280;54941;52.220;104.306;2024-03-08T05:42:24;96423.97;;;2.42;37.51
68141;BME280;54941;52.220;104.306;2024-03-08T05:44:51;96423.38;;;1.90;38.69
68141;BME280;54941;52.220;104.306;2024-03-08T05:47:18;96426.03;;;1.96;38.74
68141;BME280;54941;52.220;104.306;2024-03-08T05:49:45;96418.94;;;2.57;37.06
68141;BME280;54941;52.220;104.306;2024-03-08T05:52:11;96425.66;;;2.33;37.12
68141;BME280;54941;52.220;104.306;2024-03-08T05:54:37;96417.72;;;2.23;37.92
68141;BME280;54941;52.220;104.306;2024-03-08T05:57:04;96409.25;;;2.45;38.29
68141;BME280;54941;52.220;104.306;2024-03-08T05:59:30;96411.97;;;1.80;38.77
68141;BME280;54941;52.220;104.306;2024-03-08T06:01:56;96408.47;;;2.54;36.92
68141;BME280;54941;52.220;104.306;2024-03-08T06:04:24;96414.41;;;2.41;38.43
68141;BME280;54941;52.220;104.306;2024-03-08T06:06:50;96409.91;;;2.26;38.21
68141;BME280;54941;52.220;104.306;2024-03-08T06:09:17;96404.06;;;2.48;37.21
68141;BME280;54941;52.220;104.306;2024-03-08T06:11:43;96405.78;;;2.43;37.43
68141;BME280;54941;52.220;104.306;2024-03-08T06:14:09;96406.72;;;2.53;36.99
68141;BME280;54941;52.220;104.306;2024-03-08T06:16:36;96404.47;;;2.06;38.43
68141;BME280;54941;52.220;104.306;2024-03-08T06:19:02;96393.78;;;2.63;36.79
68141;BME280;54941;52.220;104.306;2024-03-08T06:21:30;96394.25;;;2.21;37.80
68141;BME280;54941;52.220;104.306;2024-03-08T06:23:56;96395.13;;;2.23;37.37
68141;BME280;54941;52.220;104.306;2024-03-08T06:26:22;96394.28;;;2.26;39.20
68141;BME280;54941;52.220;104.306;2024-03-08T06:28:49;96385.81;;;2.47;37.15
68141;BME280;54941;52.220;104.306;2024-03-08T06:31:15;96395.78;;;2.07;38.39
68141;BME280;54941;52.220;104.306;2024-03-08T06:33:41;96390.91;;;2.34;37.90
68141;BME280;54941;52.220;104.306;2024-03-08T06:36:09;96390.72;;;2.19;38.85
68141;BME280;54941;52.220;104.306;2024-03-08T06:38:36;96387.41;;;2.32;37.64
68141;BME280;54941;52.220;104.306;2024-03-08T06:41:03;96389.44;;;2.64;37.09
68141;BME280;54941;52.220;104.306;2024-03-08T06:43:29;96382.34;;;2.48;37.39
68141;BME280;54941;52.220;104.306;2024-03-08T06:45:55;96374.66;;;2.63;37.48
68141;BME280;54941;52.220;104.306;2024-03-08T06:48:22;96374.75;;;2.74;37.00
68141;BME280;54941;52.220;104.306;2024-03-08T06:50:48;96372.91;;;2.63;37.90
68141;BME280;54941;52.220;104.306;2024-03-08T06:53:14;96376.25;;;2.47;38.61
68141;BME280;54941;52.220;104.306;2024-03-08T06:55:42;96376.28;;;2.50;39.45
68141;BME280;54941;52.220;104.306;2024-03-08T06:58:08;96386.50;;;2.30;38.55
68141;BME280;54941;52.220;104.306;2024-03-08T07:00:35;96382.97;;;2.25;38.24
68141;BME280;54941;52.220;104.306;2024-03-08T07:03:01;96384.56;;;2.11;38.54
68141;BME280;54941;52.220;104.306;2024-03-08T07:05:27;96386.34;;;2.17;39.44
68141;BME280;54941;52.220;104.306;2024-03-08T07:07:54;96376.09;;;2.32;39.77
68141;BME280;54941;52.220;104.306;2024-03-08T07:10:20;96380.00;;;2.77;37.63
68141;BME280;54941;52.220;104.306;2024-03-08T07:12:48;96381.34;;;2.37;39.45
68141;BME280;54941;52.220;104.306;2024-03-08T07:15:14;96374.53;;;2.51;38.61
68141;BME280;54941;52.220;104.306;2024-03-08T07:17:41;96379.47;;;2.23;39.75
68141;BME280;54941;52.220;104.306;2024-03-08T07:20:08;96373.59;;;2.43;39.46
68141;BME280;54941;52.220;104.306;2024-03-08T07:22:34;96381.09;;;2.12;40.60
68141;BME280;54941;52.220;104.306;2024-03-08T07:25:00;96376.78;;;2.17;40.36
68141;BME280;54941;52.220;104.306;2024-03-08T07:27:27;96384.63;;;2.17;39.82
68141;BME280;54941;52.220;104.306;2024-03-08T07:29:54;96374.31;;;2.29;39.21
68141;BME280;54941;52.220;104.306;2024-03-08T07:32:21;96369.59;;;2.81;39.14
68141;BME280;54941;52.220;104.306;2024-03-08T07:34:47;96363.53;;;2.82;38.76
68141;BME280;54941;52.220;104.306;2024-03-08T07:37:14;96360.38;;;2.23;39.61
68141;BME280;54941;52.220;104.306;2024-03-08T07:39:40;96372.41;;;2.10;41.79
68141;BME280;54941;52.220;104.306;2024-03-08T07:42:07;96372.31;;;2.04;40.65
68141;BME280;54941;52.220;104.306;2024-03-08T07:44:33;96376.78;;;2.14;40.47
68141;BME280;54941;52.220;104.306;2024-03-08T07:47:04;96374.00;;;2.00;40.25
68141;BME280;54941;52.220;104.306;2024-03-08T07:49:30;96374.16;;;2.14;40.85
68141;BME280;54941;52.220;104.306;2024-03-08T07:51:56;96371.53;;;2.13;40.30
68141;BME280;54941;52.220;104.306;2024-03-08T07:54:23;96366.72;;;2.51;40.32
68141;BME280;54941;52.220;104.306;2024-03-08T07:56:49;96357.53;;;2.92;38.95
68141;BME280;54941;52.220;104.306;2024-03-08T07:59:15;96361.63;;;2.66;39.73
68141;BME280;54941;52.220;104.306;2024-03-08T08:01:41;96361.47;;;2.45;40.50
68141;BME280;54941;52.220;104.306;2024-03-08T08:04:09;96354.56;;;2.53;40.87
68141;BME280;54941;52.220;104.306;2024-03-08T08:06:36;96356.28;;;2.51;40.00
68141;BME280;54941;52.220;104.306;2024-03-08T08:09:02;96361.69;;;2.72;39.79
68141;BME280;54941;52.220;104.306;2024-03-08T08:11:28;96358.78;;;2.37;40.88
68141;BME280;54941;52.220;104.306;2024-03-08T08:13:55;96360.47;;;2.32;40.71
68141;BME280;54941;52.220;104.306;2024-03-08T08:16:23;96358.88;;;2.46;39.31
68141;BME280;54941;52.220;104.306;2024-03-08T08:18:49;96358.41;;;2.05;40.12
68141;BME280;54941;52.220;104.306;2024-03-08T08:21:17;96357.63;;;2.09;40.64
68141;BME280;54941;52.220;104.306;2024-03-08T08:23:43;96347.38;;;2.30;40.93
68141;BME280;54941;52.220;104.306;2024-03-08T08:26:10;96345.00;;;2.53;40.63
68141;BME280;54941;52.220;104.306;2024-03-08T08:28:36;96344.28;;;2.70;40.49
68141;BME280;54941;52.220;104.306;2024-03-08T08:31:03;96345.06;;;2.58;40.80
68141;BME280;54941;52.220;104.306;2024-03-08T08:33:29;96336.28;;;2.47;41.13
68141;BME280;54941;52.220;104.306;2024-03-08T08:35:56;96339.69;;;2.41;41.37
68141;BME280;54941;52.220;104.306;2024-03-08T08:38:23;96339.69;;;2.41;40.85
68141;BME280;54941;52.220;104.306;2024-03-08T08:40:51;96333.88;;;2.70;40.74
68141;BME280;54941;52.220;104.306;2024-03-08T08:43:17;96335.41;;;2.46;40.56
68141;BME280;54941;52.220;104.306;2024-03-08T08:45:43;96336.19;;;2.41;42.08
68141;BME280;54941;52.220;104.306;2024-03-08T08:48:09;96338.00;;;2.45;41.40
68141;BME280;54941;52.220;104.306;2024-03-08T08:50:36;96340.50;;;2.36;42.05
68141;BME280;54941;52.220;104.306;2024-03-08T08:53:02;96333.66;;;2.47;40.88
68141;BME280;54941;52.220;104.306;2024-03-08T08:55:30;96339.84;;;2.55;40.81
68141;BME280;54941;52.220;104.306;2024-03-08T08:57:57;96340.72;;;2.58;40.71
68141;BME280;54941;52.220;104.306;2024-03-08T09:00:23;96345.00;;;2.53;42.21
68141;BME280;54941;52.220;104.306;2024-03-08T09:02:49;96338.91;;;2.51;41.57
68141;BME280;54941;52.220;104.306;2024-03-08T09:05:16;96338.41;;;2.95;39.44
68141;BME280;54941;52.220;104.306;2024-03-08T09:07:43;96340.16;;;2.99;39.34
68141;BME280;54941;52.220;104.306;2024-03-08T09:10:09;96332.22;;;2.81;39.39
68141;BME280;54941;52.220;104.306;2024-03-08T09:12:37;96333.91;;;2.77;39.56
68141;BME280;54941;52.220;104.306;2024-03-08T09:15:04;96346.81;;;2.60;39.65
68141;BME280;54941;52.220;104.306;2024-03-08T09:17:31;96337.91;;;2.39;40.44
68141;BME280;54941;52.220;104.306;2024-03-08T09:19:57;96330.38;;;2.68;40.17
68141;BME280;54941;52.220;104.306;2024-03-08T09:22:23;96343.25;;;2.52;40.19
68141;BME280;54941;52.220;104.306;2024-03-08T09:24:49;96341.50;;;2.48;40.50
68141;BME280;54941;52.220;104.306;2024-03-08T09:27:16;96343.97;;;2.34;40.85
68141;BME280;54941;52.220;104.306;2024-03-08T09:29:43;96340.38;;;2.22;40.64
68141;BME280;54941;52.220;104.306;2024-03-08T09:32:10;96341.94;;;2.06;42.85
68141;BME280;54941;52.220;104.306;2024-03-08T09:34:36;96343.75;;;2.13;41.77
68141;BME280;54941;52.220;104.306;2024-03-08T09:37:02;96351.47;;;2.04;41.82
68141;BME280;54941;52.220;104.306;2024-03-08T09:39:29;96344.50;;;2.01;41.70
68141;BME280;54941;52.220;104.306;2024-03-08T09:41:55;96349.72;;;2.03;41.71
68141;BME280;54941;52.220;104.306;2024-03-08T09:44:22;96347.13;;;2.04;41.64
68141;BME280;54941;52.220;104.306;2024-03-08T09:46:51;96348.00;;;2.07;41.83
68141;BME280;54941;52.220;104.306;2024-03-08T09:49:17;96350.59;;;2.02;41.54
68141;BME280;54941;52.220;104.306;2024-03-08T09:51:44;96349.56;;;1.88;41.58
68141;BME280;54941;52.220;104.306;2024-03-08T09:54:10;96354.88;;;1.98;41.67
68141;BME280;54941;52.220;104.306;2024-03-08T09:56:37;96353.91;;;1.87;42.03
68141;BME280;54941;52.220;104.306;2024-03-08T09:59:04;96352.88;;;1.74;42.39
68141;BME280;54941;52.220;104.306;2024-03-08T10:01:31;96343.34;;;1.75;42.31
68141;BME280;54941;52.220;104.306;2024-03-08T10:03:58;96351.94;;;1.69;42.95
68141;BME280;54941;52.220;104.306;2024-03-08T10:06:25;96351.03;;;1.66;46.00
68141;BME280;54941;52.220;104.306;2024-03-08T10:08:51;96350.03;;;1.56;46.36
68141;BME280;54941;52.220;104.306;2024-03-08T10:11:17;96355.91;;;1.40;51.27
68141;BME280;54941;52.220;104.306;2024-03-08T10:13:44;96353.06;;;1.25;53.47
68141;BME280;54941;52.220;104.306;2024-03-08T10:16:11;96353.50;;;0.93;56.28
68141;BME280;54941;52.220;104.306;2024-03-08T10:18:37;96353.16;;;0.72;57.49
68141;BME280;54941;52.220;104.306;2024-03-08T10:21:06;96357.19;;;0.56;56.73
68141;BME280;54941;52.220;104.306;2024-03-08T10:23:33;96356.25;;;0.51;58.86
68141;BME280;54941;52.220;104.306;2024-03-08T10:26:09;96357.34;;;0.64;50.24
68141;BME280;54941;52.220;104.306;2024-03-08T10:28:36;96358.31;;;0.70;48.26
68141;BME280;54941;52.220;104.306;2024-03-08T10:31:02;96352.75;;;0.47;50.34
68141;BME280;54941;52.220;104.306;2024-03-08T10:33:29;96360.38;;;-0.09;58.27
68141;BME280;54941;52.220;104.306;2024-03-08T10:35:55;96354.38;;;-0.48;58.36
68141;BME280;54941;52.220;104.306;2024-03-08T10:38:23;96357.38;;;-0.71;57.43
68141;BME280;54941;52.220;104.306;2024-03-08T10:40:51;96350.94;;;-0.88;56.07
68141;BME280;54941;52.220;104.306;2024-03-08T10:43:23;96365.97;;;-1.11;55.95
68141;BME280;54941;52.220;104.306;2024-03-08T10:45:52;96372.97;;;-1.07;55.84
68141;BME280;54941;52.220;104.306;2024-03-08T10:48:28;96362.31;;;-0.42;51.07
68141;BME280;54941;52.220;104.306;2024-03-08T10:50:56;96357.69;;;-0.12;50.27
68141;BME280;54941;52.220;104.306;2024-03-08T10:53:27;96359.91;;;-0.33;52.75
68141;BME280;54941;52.220;104.306;2024-03-08T10:55:53;96357.84;;;-0.89;54.20
68141;BME280;54941;52.220;104.306;2024-03-08T10:58:23;96362.66;;;-1.41;56.78
68141;BME280;54941;52.220;104.306;2024-03-08T11:00:50;96362.94;;;-1.65;56.96
68141;BME280;54941;52.220;104.306;2024-03-08T11:03:49;96372.59;;;-1.93;58.16
68141;BME280;54941;52.220;104.306;2024-03-08T11:06:16;96375.13;;;-1.94;58.35
68141;BME280;54941;52.220;104.306;2024-03-08T11:08:46;96370.94;;;-2.21;58.40
68141;BME280;54941;52.220;104.306;2024-03-08T11:11:25;96376.97;;;-2.22;58.79
68141;BME280;54941;52.220;104.306;2024-03-08T11:13:52;96378.72;;;-2.21;58.08
68141;BME280;54941;52.220;104.306;2024-03-08T11:16:38;96380.56;;;-2.17;57.69
68141;BME280;54941;52.220;104.306;2024-03-08T11:19:22;96377.78;;;-2.23;57.49
68141;BME280;54941;52.220;104.306;2024-03-08T11:21:57;96380.00;;;-2.07;55.41
68141;BME280;54941;52.220;104.306;2024-03-08T11:24:25;96391.03;;;-2.12;57.13
68141;BME280;54941;52.220;104.306;2024-03-08T11:26:56;96397.81;;;-2.47;59.99
68141;BME280;54941;52.220;104.306;2024-03-08T11:29:36;96396.44;;;-2.35;58.12
68141;BME280;54941;52.220;104.306;2024-03-08T11:32:07;96397.00;;;-2.45;59.22
68141;BME280;54941;52.220;104.306;2024-03-08T11:34:34;96387.91;;;-2.62;61.46
68141;BME280;54941;52.220;104.306;2024-03-08T11:37:00;96393.00;;;-2.65;59.93
68141;BME280;54941;52.220;104.306;2024-03-08T11:39:28;96394.38;;;-2.76;60.02
68141;BME280;54941;52.220;104.306;2024-03-08T11:41:55;96394.81;;;-2.61;58.36
68141;BME280;54941;52.220;104.306;2024-03-08T11:44:24;96394.72;;;-2.66;57.33
68141;BME280;54941;52.220;104.306;2024-03-08T11:46:52;96403.91;;;-2.75;61.01
68141;BME280;54941;52.220;104.306;2024-03-08T11:49:18;96406.06;;;-3.16;63.41
68141;BME280;54941;52.220;104.306;2024-03-08T11:51:45;96403.41;;;-3.46;64.40
68141;BME280;54941;52.220;104.306;2024-03-08T11:54:12;96401.00;;;-3.40;64.02
68141;BME280;54941;52.220;104.306;2024-03-08T11:56:40;96403.97;;;-3.55;64.51
68141;BME280;54941;52.220;104.306;2024-03-08T11:59:11;96403.59;;;-3.65;64.94
68141;BME280;54941;52.220;104.306;2024-03-08T12:01:37;96405.91;;;-3.47;63.56
68141;BME280;54941;52.220;104.306;2024-03-08T12:04:04;96401.22;;;-3.34;61.15
68141;BME280;54941;52.220;104.306;2024-03-08T12:06:37;96404.47;;;-3.39;63.07
68141;BME280;54941;52.220;104.306;2024-03-08T12:09:03;96399.34;;;-3.38;62.96
68141;BME280;54941;52.220;104.306;2024-03-08T12:11:30;96409.13;;;-3.55;63.76
68141;BME280;54941;52.220;104.306;2024-03-08T12:13:58;96399.47;;;-3.60;63.67
68141;BME280;54941;52.220;104.306;2024-03-08T12:16:24;96403.34;;;-3.73;64.59
68141;BME280;54941;52.220;104.306;2024-03-08T12:18:51;96404.81;;;-3.81;63.18
68141;BME280;54941;52.220;104.306;2024-03-08T12:21:18;96397.47;;;-3.15;58.39
68141;BME280;54941;52.220;104.306;2024-03-08T12:23:44;96392.22;;;-2.89;55.83
68141;BME280;54941;52.220;104.306;2024-03-08T12:26:11;96389.47;;;-2.67;54.57
68141;BME280;54941;52.220;104.306;2024-03-08T12:28:38;96388.66;;;-2.95;58.04
68141;BME280;54941;52.220;104.306;2024-03-08T12:31:07;96398.91;;;-3.25;59.88
68141;BME280;54941;52.220;104.306;2024-03-08T12:33:33;96399.28;;;-3.39;60.95
68141;BME280;54941;52.220;104.306;2024-03-08T12:36:00;96404.97;;;-3.49;62.73
68141;BME280;54941;52.220;104.306;2024-03-08T12:38:28;96394.16;;;-3.65;62.54
68141;BME280;54941;52.220;104.306;2024-03-08T12:40:58;96399.34;;;-3.90;62.91
68141;BME280;54941;52.220;104.306;2024-03-08T12:43:25;96400.53;;;-3.80;61.10